Terminal Aerodrome Forecast
Issued by NWS

Home | Current Version | Previous Version | Text Only | Print | Product List | Glossary On
Versions: 1 2 3 4 5 6 7 8 9 10 11 12 13
000
FTUS44 KCRP 281700
TAFALI
TAF
KALI 281728Z 2818/2918 17014G18KT P6SM FEW035
     FM290000 17008KT P6SM SKC
     FM290800 18006KT P6SM SCT012 WS020/18035KT
      TEMPO 2910/2914 BKN012
     FM291400 18013G17KT P6SM SCT025
      TEMPO 2914/2916 BKN025=

USA.gov is the U.S. government's official web portal to all federal, state and local government web resources and services.